Terminal Aerodrome Forecast
Issued by NWS Springfield, MO

Home | Current Version | Previous Version | Text Only | Print | Product List | Glossary On
Versions: 1 2 3 4 5 6 7 8 9 10 11 12 13 14 15 16 17 18 19 20 21 22 23 24 25 26
307
FTUS43 KSGF 260520
TAFSGF
TAF
KSGF 260520Z 2606/2706 VRB04KT P6SM SKC
     FM260900 16006KT P6SM OVC250
     FM261100 16008KT P6SM OVC100
     FM261800 18010KT P6SM OVC035 PROB30 2618/2622 5SM -RA BR OVC025
     FM270100 13006KT P6SM OVC100=

USA.gov is the U.S. government's official web portal to all federal, state and local government web resources and services.